createdAt,value
2023-04-18T00:00:18.009Z,10.20
2023-04-18T00:03:18.035Z,10.20
2023-04-18T00:06:07.616Z,10.15
2023-04-18T00:08:57.290Z,10.11
2023-04-18T00:11:46.615Z,10.10
2023-04-18T00:14:37.950Z,10.12
2023-04-18T00:17:27.756Z,10.13
2023-04-18T00:20:16.582Z,10.13
2023-04-18T00:23:06.312Z,10.14
2023-04-18T00:25:55.351Z,10.14
2023-04-18T00:28:45.019Z,10.13
2023-04-18T00:31:34.250Z,10.10
2023-04-18T00:34:23.661Z,10.08
2023-04-18T00:37:15.426Z,10.05
2023-04-18T00:40:05.844Z,10.01
2023-04-18T00:42:54.848Z,10.01
2023-04-18T00:45:43.560Z,10.03
2023-04-18T00:48:32.768Z,10.00
2023-04-18T00:51:21.894Z,9.96
2023-04-18T00:54:13.583Z,9.92
2023-04-18T00:57:03.262Z,9.95
2023-04-18T00:59:52.399Z,9.98
2023-04-18T01:02:41.647Z,9.96
2023-04-18T01:05:30.945Z,9.97
2023-04-18T01:08:20.584Z,9.98
2023-04-18T01:11:09.589Z,10.01
2023-04-18T01:14:02.335Z,10.03
2023-04-18T01:16:51.347Z,10.05
2023-04-18T01:19:41.666Z,10.07
2023-04-18T01:22:30.682Z,10.06
2023-04-18T01:25:19.676Z,10.04
2023-04-18T01:28:09.955Z,10.01
2023-04-18T01:30:59.972Z,9.99
2023-04-18T01:33:49.139Z,9.94
2023-04-18T01:36:38.373Z,9.91
2023-04-18T01:39:27.431Z,9.88
2023-04-18T01:42:16.598Z,9.84
2023-04-18T01:45:07.536Z,9.81
2023-04-18T01:47:56.513Z,9.79
2023-04-18T01:50:45.478Z,9.81
2023-04-18T01:53:34.271Z,9.79
2023-04-18T01:56:23.512Z,9.78
2023-04-18T01:59:12.728Z,9.78
2023-04-18T02:02:01.858Z,9.79
2023-04-18T02:04:51.199Z,9.77
2023-04-18T02:07:40.065Z,9.75
2023-04-18T02:10:29.576Z,9.74
2023-04-18T02:13:18.768Z,9.76
2023-04-18T02:16:11.966Z,9.75
2023-04-18T02:19:01.602Z,9.73
2023-04-18T02:21:50.452Z,9.72
2023-04-18T02:24:39.172Z,9.69
2023-04-18T02:27:28.273Z,9.70
2023-04-18T02:30:18.933Z,9.68
2023-04-18T02:33:08.599Z,9.66
2023-04-18T02:35:57.760Z,9.66
2023-04-18T02:38:47.197Z,9.67
2023-04-18T02:41:37.747Z,9.67
2023-04-18T02:44:26.671Z,9.66
2023-04-18T02:47:17.216Z,9.64
2023-04-18T02:50:08.561Z,9.61
2023-04-18T02:52:58.233Z,9.61
2023-04-18T02:55:52.798Z,9.63
2023-04-18T02:58:42.444Z,9.61
2023-04-18T03:01:48.778Z,9.58
2023-04-18T03:04:40.914Z,9.59
2023-04-18T03:07:31.916Z,9.58
2023-04-18T03:10:21.733Z,9.56
2023-04-18T03:13:10.668Z,9.53
2023-04-18T03:16:01.174Z,9.51
2023-04-18T03:18:50.894Z,9.51
2023-04-18T03:21:40.340Z,9.51
2023-04-18T03:24:29.922Z,9.47
2023-04-18T03:27:21.386Z,9.44
2023-04-18T03:30:11.305Z,9.40
2023-04-18T03:33:02.953Z,9.39
2023-04-18T03:35:53.359Z,9.38
2023-04-18T03:38:42.464Z,9.39
2023-04-18T03:41:31.422Z,9.36
2023-04-18T03:44:20.293Z,9.33
2023-04-18T03:47:09.588Z,9.29
2023-04-18T03:49:59.634Z,9.25
2023-04-18T03:52:49.280Z,9.23
2023-04-18T03:55:39.369Z,9.21
2023-04-18T03:58:29.232Z,9.18
2023-04-18T04:01:18.513Z,9.20
2023-04-18T04:04:09.396Z,9.22
2023-04-18T04:06:58.607Z,9.25
2023-04-18T04:09:47.873Z,9.26
2023-04-18T04:12:38.408Z,9.27
2023-04-18T04:15:28.690Z,9.30
2023-04-18T04:18:25.470Z,9.33
2023-04-18T04:21:15.787Z,9.35
2023-04-18T04:24:09.538Z,9.39
2023-04-18T04:27:01.460Z,9.40
2023-04-18T04:29:52.246Z,9.42
2023-04-18T04:32:41.448Z,9.42
2023-04-18T04:35:32.263Z,9.42
2023-04-18T04:38:23.819Z,9.44
2023-04-18T04:41:15.264Z,9.41
2023-04-18T04:44:04.280Z,9.38
2023-04-18T04:46:54.578Z,9.39
2023-04-18T04:49:45.922Z,9.39
2023-04-18T04:52:35.095Z,9.42
2023-04-18T04:55:25.776Z,9.41
2023-04-18T04:58:14.969Z,9.41
2023-04-18T05:01:36.502Z,9.43
2023-04-18T05:04:26.119Z,9.46
2023-04-18T05:07:15.461Z,9.47
2023-04-18T05:10:04.829Z,9.47
2023-04-18T05:12:53.839Z,9.45
2023-04-18T05:15:43.187Z,9.46
2023-04-18T05:18:34.339Z,9.47
2023-04-18T05:21:26.064Z,9.49
2023-04-18T05:24:15.261Z,9.51
2023-04-18T05:27:04.649Z,9.50
2023-04-18T05:29:53.556Z,9.50
2023-04-18T05:32:44.898Z,9.50
2023-04-18T05:35:34.318Z,9.53
2023-04-18T05:38:23.532Z,9.54
2023-04-18T05:41:13.213Z,9.56
2023-04-18T05:44:05.615Z,9.58
2023-04-18T05:47:06.879Z,9.60
2023-04-18T05:49:55.994Z,9.63
2023-04-18T05:52:47.875Z,9.67
2023-04-18T05:55:36.713Z,9.71
2023-04-18T05:58:25.916Z,9.74
2023-04-18T06:01:16.573Z,9.81
2023-04-18T06:04:06.383Z,9.85
2023-04-18T06:06:55.862Z,9.87
2023-04-18T06:09:45.599Z,9.93
2023-04-18T06:12:34.571Z,9.99
2023-04-18T06:15:23.897Z,10.05
2023-04-18T06:18:12.822Z,10.09
2023-04-18T06:21:01.781Z,10.15
2023-04-18T06:23:51.287Z,10.14
2023-04-18T06:26:40.526Z,10.11
2023-04-18T06:29:33.139Z,10.13
2023-04-18T06:32:22.835Z,10.15
2023-04-18T06:35:12.355Z,10.14
2023-04-18T06:38:01.297Z,10.15
2023-04-18T06:40:50.486Z,10.14
2023-04-18T06:43:49.168Z,10.13
2023-04-18T06:46:49.163Z,10.14
2023-04-18T06:49:38.552Z,10.17
2023-04-18T06:52:27.894Z,10.18
2023-04-18T06:55:17.274Z,10.19
2023-04-18T06:58:06.380Z,10.22
2023-04-18T07:00:55.286Z,10.27
2023-04-18T07:03:44.584Z,10.33
2023-04-18T07:06:33.761Z,10.36
2023-04-18T07:09:23.764Z,10.39
2023-04-18T07:12:13.090Z,10.40
2023-04-18T07:15:02.164Z,10.40
2023-04-18T07:17:51.336Z,10.37
2023-04-18T07:20:40.573Z,10.36
2023-04-18T07:23:29.849Z,10.35
2023-04-18T07:26:19.369Z,10.37
2023-04-18T07:29:08.493Z,10.44
2023-04-18T07:31:58.043Z,10.49
2023-04-18T07:34:47.155Z,10.57
2023-04-18T07:37:36.272Z,10.69
2023-04-18T07:40:28.174Z,10.77
2023-04-18T07:43:18.111Z,10.86
2023-04-18T07:46:08.988Z,10.92
2023-04-18T07:48:58.191Z,10.92
2023-04-18T07:51:46.826Z,10.98
2023-04-18T07:54:35.957Z,11.06
2023-04-18T07:57:25.170Z,11.16
2023-04-18T08:00:15.885Z,11.28
2023-04-18T08:03:05.572Z,11.45
2023-04-18T08:05:54.711Z,11.60
2023-04-18T08:08:43.978Z,11.68
2023-04-18T08:11:33.184Z,11.67
2023-04-18T08:14:22.319Z,11.71
2023-04-18T08:17:11.672Z,11.78
2023-04-18T08:20:05.070Z,11.81
2023-04-18T08:23:04.772Z,11.81
2023-04-18T08:25:55.847Z,11.84
2023-04-18T08:28:46.577Z,11.87
2023-04-18T08:31:35.741Z,11.98
2023-04-18T08:34:24.880Z,12.18
2023-04-18T08:37:14.479Z,12.34
2023-04-18T08:40:04.948Z,12.50
2023-04-18T08:42:54.098Z,12.65
2023-04-18T08:45:43.508Z,12.79
2023-04-18T08:48:33.456Z,13.05
2023-04-18T08:51:23.052Z,13.31
2023-04-18T08:54:12.484Z,13.52
2023-04-18T08:57:07.769Z,13.67
2023-04-18T08:59:56.765Z,13.82
2023-04-18T09:02:46.954Z,14.06
2023-04-18T09:05:36.486Z,14.22
2023-04-18T09:08:25.644Z,14.43
2023-04-18T09:11:29.122Z,14.74
2023-04-18T09:14:26.124Z,14.99
2023-04-18T09:17:16.422Z,15.16
2023-04-18T09:20:06.311Z,15.24
2023-04-18T09:22:58.152Z,15.38
2023-04-18T09:25:48.264Z,15.62
2023-04-18T09:28:37.692Z,16.00
2023-04-18T09:31:26.550Z,16.26
2023-04-18T09:34:25.112Z,16.31
2023-04-18T09:37:14.556Z,16.37
2023-04-18T09:40:04.399Z,16.38
2023-04-18T09:42:54.335Z,16.25
2023-04-18T09:45:43.154Z,16.12
2023-04-18T09:48:32.322Z,16.01
2023-04-18T09:51:22.453Z,15.88
2023-04-18T09:54:12.179Z,15.77
2023-04-18T09:57:01.832Z,15.76
2023-04-18T09:59:52.209Z,15.87
2023-04-18T10:02:45.987Z,15.89
2023-04-18T10:05:36.022Z,15.74
2023-04-18T10:08:24.973Z,15.57
2023-04-18T10:11:14.175Z,15.44
2023-04-18T10:14:03.898Z,15.30
2023-04-18T10:16:53.347Z,15.17
2023-04-18T10:19:44.323Z,15.14
2023-04-18T10:22:33.978Z,15.21
2023-04-18T10:25:48.499Z,15.37
2023-04-18T10:28:54.644Z,15.45
2023-04-18T10:31:47.981Z,15.47
2023-04-18T10:34:39.348Z,15.45
2023-04-18T10:37:29.076Z,15.44
2023-04-18T10:40:18.720Z,15.42
2023-04-18T10:43:07.954Z,15.43
2023-04-18T10:46:27.900Z,15.45
2023-04-18T10:49:20.434Z,15.45
2023-04-18T10:52:11.737Z,15.44
2023-04-18T10:55:08.884Z,15.42
2023-04-18T10:57:58.573Z,15.38
2023-04-18T11:00:48.062Z,15.33
2023-04-18T11:03:36.970Z,15.35
2023-04-18T11:06:27.329Z,15.49
2023-04-18T11:09:16.806Z,15.67
2023-04-18T11:12:12.191Z,15.68
2023-04-18T11:15:02.829Z,15.62
2023-04-18T11:17:58.761Z,15.56
2023-04-18T11:20:51.013Z,15.52
2023-04-18T11:23:40.467Z,15.45
2023-04-18T11:26:30.813Z,15.36
2023-04-18T11:29:19.900Z,15.30
2023-04-18T11:32:09.849Z,15.30
2023-04-18T11:34:59.157Z,15.31
2023-04-18T11:37:50.125Z,15.33
2023-04-18T11:40:39.301Z,15.37
2023-04-18T11:43:28.584Z,15.41
2023-04-18T11:46:18.108Z,15.42
2023-04-18T11:49:07.108Z,15.39
2023-04-18T11:51:56.449Z,15.35
2023-04-18T11:54:45.664Z,15.33
2023-04-18T11:57:35.521Z,15.33
2023-04-18T12:00:33.046Z,15.35
2023-04-18T12:03:22.778Z,15.39
2023-04-18T12:06:12.304Z,15.41
2023-04-18T12:09:01.584Z,15.43
2023-04-18T12:12:00.948Z,15.43
2023-04-18T12:14:51.019Z,15.41
2023-04-18T12:17:40.430Z,15.43
2023-04-18T12:20:36.582Z,15.47
2023-04-18T12:23:32.447Z,15.50
2023-04-18T12:26:23.055Z,15.53
2023-04-18T12:29:12.147Z,15.54
2023-04-18T12:32:01.802Z,15.54
2023-04-18T12:34:50.866Z,15.58
2023-04-18T12:37:39.843Z,15.64
2023-04-18T12:40:29.321Z,15.72
2023-04-18T12:43:18.569Z,15.80
2023-04-18T12:46:07.682Z,15.87
2023-04-18T12:48:57.864Z,15.93
2023-04-18T12:51:46.911Z,15.96
2023-04-18T12:54:37.916Z,16.01
2023-04-18T12:57:27.053Z,16.07
2023-04-18T13:00:17.123Z,16.12
2023-04-18T13:03:06.798Z,16.13
2023-04-18T13:05:56.208Z,16.21
2023-04-18T13:08:47.519Z,16.36
2023-04-18T13:11:36.451Z,16.53
2023-04-18T13:14:26.540Z,16.64
2023-04-18T13:17:15.503Z,16.64
2023-04-18T13:20:06.549Z,16.62
2023-04-18T13:22:55.843Z,16.59
2023-04-18T13:25:45.016Z,16.56
2023-04-18T13:28:34.870Z,16.54
2023-04-18T13:31:24.229Z,16.54
2023-04-18T13:34:13.569Z,16.50
2023-04-18T13:37:02.542Z,16.43
2023-04-18T13:39:51.599Z,16.31
2023-04-18T13:42:59.375Z,16.12
2023-04-18T13:45:48.966Z,15.90
2023-04-18T13:48:38.107Z,15.70
2023-04-18T13:51:27.642Z,15.57
2023-04-18T13:54:17.085Z,15.49
2023-04-18T13:57:11.544Z,15.46
2023-04-18T14:00:00.514Z,15.47
2023-04-18T14:02:52.388Z,15.47
2023-04-18T14:05:41.236Z,15.46
2023-04-18T14:08:30.687Z,15.50
2023-04-18T14:11:19.441Z,15.53
2023-04-18T14:14:11.463Z,15.50
2023-04-18T14:17:01.446Z,15.44
2023-04-18T14:19:51.625Z,15.43
2023-04-18T14:22:41.968Z,15.45
2023-04-18T14:25:33.008Z,15.46
2023-04-18T14:32:20.036Z,15.21
2023-04-18T14:35:11.045Z,15.08
2023-04-18T14:37:59.937Z,14.97
2023-04-18T14:40:49.224Z,14.86
2023-04-18T14:43:38.947Z,14.79
2023-04-18T14:46:29.296Z,14.75
2023-04-18T14:49:18.600Z,14.70
2023-04-18T14:52:11.519Z,14.59
2023-04-18T14:55:00.960Z,14.47
2023-04-18T14:57:50.391Z,14.37
2023-04-18T15:00:39.540Z,14.30
2023-04-18T15:03:29.201Z,14.26
2023-04-18T15:06:18.572Z,14.20
2023-04-18T15:09:07.918Z,14.16
2023-04-18T15:11:58.391Z,14.12
2023-04-18T15:14:47.824Z,14.10
2023-04-18T15:17:36.688Z,14.07
2023-04-18T15:20:25.577Z,14.04
2023-04-18T15:23:14.836Z,14.01
2023-04-18T15:26:03.914Z,14.00
2023-04-18T15:28:53.405Z,13.99
2023-04-18T15:31:42.657Z,14.02
2023-04-18T15:34:31.980Z,14.04
2023-04-18T15:37:21.601Z,14.05
2023-04-18T15:40:16.196Z,14.06
2023-04-18T15:43:06.084Z,14.09
2023-04-18T15:45:55.651Z,14.11
2023-04-18T15:48:45.792Z,14.12
2023-04-18T15:51:35.065Z,14.15
2023-04-18T15:54:24.390Z,14.19
2023-04-18T15:57:13.832Z,14.20
2023-04-18T16:00:04.339Z,14.22
2023-04-18T16:02:55.033Z,14.22
2023-04-18T16:05:44.142Z,14.22
2023-04-18T16:08:34.178Z,14.20
2023-04-18T16:11:26.174Z,14.20
2023-04-18T16:14:15.546Z,14.21
2023-04-18T16:17:04.870Z,14.19
2023-04-18T16:19:54.290Z,14.16
2023-04-18T16:22:43.523Z,14.14
2023-04-18T16:25:32.758Z,14.13
2023-04-18T16:28:21.738Z,14.13
2023-04-18T16:31:11.270Z,14.13
2023-04-18T16:34:00.833Z,14.14
2023-04-18T16:36:51.173Z,14.15
2023-04-18T16:39:40.820Z,14.17
2023-04-18T16:42:29.720Z,14.18
2023-04-18T16:45:18.967Z,14.20
2023-04-18T16:48:08.811Z,14.20
2023-04-18T16:50:57.990Z,14.21
2023-04-18T16:53:47.296Z,14.18
2023-04-18T16:56:36.882Z,14.17
2023-04-18T16:59:26.091Z,14.15
2023-04-18T17:02:15.210Z,14.13
2023-04-18T17:05:13.582Z,14.10
2023-04-18T17:08:03.875Z,14.08
2023-04-18T17:10:54.229Z,14.04
2023-04-18T17:13:43.487Z,14.01
2023-04-18T17:16:32.639Z,13.97
2023-04-18T17:19:21.541Z,13.94
2023-04-18T17:22:11.328Z,13.92
2023-04-18T17:25:01.803Z,13.89
2023-04-18T17:27:51.327Z,13.86
2023-04-18T17:30:42.751Z,13.81
2023-04-18T17:33:31.649Z,13.75
2023-04-18T17:36:21.219Z,13.72
2023-04-18T17:39:11.119Z,13.70
2023-04-18T17:42:02.210Z,13.65
2023-04-18T17:44:51.063Z,13.63
2023-04-18T17:47:40.925Z,13.60
2023-04-18T17:50:30.476Z,13.60
2023-04-18T17:53:22.365Z,13.58
2023-04-18T17:56:12.046Z,13.58
2023-04-18T17:59:01.220Z,13.57
2023-04-18T18:01:50.121Z,13.56
2023-04-18T18:04:39.430Z,13.54
2023-04-18T18:07:34.810Z,13.51
2023-04-18T18:10:24.547Z,13.49
2023-04-18T18:13:14.038Z,13.47
2023-04-18T18:16:04.011Z,13.43
2023-04-18T18:18:56.328Z,13.40
2023-04-18T18:21:45.395Z,13.37
2023-04-18T18:24:34.536Z,13.35
2023-04-18T18:27:23.721Z,13.33
2023-04-18T18:30:13.536Z,13.33
2023-04-18T18:33:03.466Z,13.31
2023-04-18T18:35:53.737Z,13.28
2023-04-18T18:38:42.980Z,13.27
2023-04-18T18:41:31.880Z,13.25
2023-04-18T18:44:21.304Z,13.24
2023-04-18T18:47:10.463Z,13.23
2023-04-18T18:49:59.522Z,13.24
2023-04-18T18:52:48.944Z,13.26
2023-04-18T18:55:37.927Z,13.29
2023-04-18T18:58:27.149Z,13.32
2023-04-18T19:01:16.024Z,13.34
2023-04-18T19:04:05.513Z,13.35
2023-04-18T19:06:54.752Z,13.35
2023-04-18T19:09:45.466Z,13.33
2023-04-18T19:12:34.677Z,13.30
2023-04-18T19:15:27.272Z,13.26
2023-04-18T19:18:18.159Z,13.23
2023-04-18T19:21:07.473Z,13.19
2023-04-18T19:23:56.848Z,13.16
2023-04-18T19:26:45.753Z,13.12
2023-04-18T19:29:34.547Z,13.07
2023-04-18T19:32:23.741Z,13.04
2023-04-18T19:35:13.355Z,13.01
2023-04-18T19:38:02.847Z,12.99
2023-04-18T19:40:51.986Z,12.96
2023-04-18T19:43:42.628Z,12.94
2023-04-18T19:46:31.683Z,12.92
2023-04-18T19:49:22.554Z,12.90
2023-04-18T19:52:11.549Z,12.88
2023-04-18T19:55:02.333Z,12.85
2023-04-18T19:57:55.698Z,12.81
2023-04-18T20:00:45.097Z,12.75
2023-04-18T20:03:34.890Z,12.71
2023-04-18T20:06:25.290Z,12.68
2023-04-18T20:09:17.004Z,12.65
2023-04-18T20:12:06.368Z,12.63
2023-04-18T20:14:55.687Z,12.58
2023-04-18T20:17:45.528Z,12.53
2023-04-18T20:20:34.883Z,12.50
2023-04-18T20:23:23.829Z,12.48
2023-04-18T20:26:13.494Z,12.45
2023-04-18T20:29:03.692Z,12.40
2023-04-18T20:31:52.631Z,12.35
2023-04-18T20:34:42.441Z,12.29
2023-04-18T20:37:36.681Z,12.23
2023-04-18T20:40:26.219Z,12.16
2023-04-18T20:43:17.558Z,12.10
2023-04-18T20:46:07.039Z,12.05
2023-04-18T20:48:56.230Z,11.99
2023-04-18T20:51:45.926Z,11.93
2023-04-18T20:54:35.265Z,11.89
2023-04-18T20:57:24.554Z,11.83
2023-04-18T21:00:14.441Z,11.77
2023-04-18T21:03:03.870Z,11.74
2023-04-18T21:05:52.682Z,11.72
2023-04-18T21:08:41.940Z,11.69
2023-04-18T21:11:31.370Z,11.66
2023-04-18T21:14:20.213Z,11.63
2023-04-18T21:17:10.574Z,11.61
2023-04-18T21:20:00.034Z,11.58
2023-04-18T21:22:49.216Z,11.56
2023-04-18T21:25:38.634Z,11.53
2023-04-18T21:28:27.897Z,11.52
2023-04-18T21:31:17.081Z,11.49
2023-04-18T21:34:06.411Z,11.46
2023-04-18T21:36:55.828Z,11.42
2023-04-18T21:39:44.671Z,11.39
2023-04-18T21:42:35.248Z,11.35
2023-04-18T21:45:24.664Z,11.31
2023-04-18T21:48:14.511Z,11.26
2023-04-18T21:51:03.704Z,11.21
2023-04-18T21:53:53.072Z,11.17
2023-04-18T21:56:43.003Z,11.11
2023-04-18T21:59:31.929Z,11.03
2023-04-18T22:02:22.178Z,10.98
2023-04-18T22:05:13.037Z,10.94
2023-04-18T22:08:03.417Z,10.91
2023-04-18T22:10:54.917Z,10.89
2023-04-18T22:13:45.171Z,10.88
2023-04-18T22:16:34.554Z,10.88
2023-04-18T22:19:24.838Z,10.88
2023-04-18T22:22:14.591Z,10.87
2023-04-18T22:25:03.652Z,10.86
2023-04-18T22:27:52.962Z,10.87
2023-04-18T22:30:42.438Z,10.87
2023-04-18T22:33:31.508Z,10.87
2023-04-18T22:36:20.959Z,10.85
2023-04-18T22:39:10.088Z,10.86
2023-04-18T22:41:59.275Z,10.85
2023-04-18T22:44:48.702Z,10.85
2023-04-18T22:47:37.397Z,10.85
2023-04-18T22:50:27.414Z,10.84
2023-04-18T22:53:16.227Z,10.82
2023-04-18T22:56:05.749Z,10.83
2023-04-18T22:58:54.643Z,10.82
2023-04-18T23:01:43.875Z,10.81
2023-04-18T23:04:34.667Z,10.81
2023-04-18T23:07:23.844Z,10.80
2023-04-18T23:10:13.499Z,10.78
2023-04-18T23:13:02.738Z,10.79
2023-04-18T23:15:51.845Z,10.77
2023-04-18T23:18:41.087Z,10.78
2023-04-18T23:21:31.311Z,10.78
2023-04-18T23:24:20.756Z,10.75
2023-04-18T23:27:10.081Z,10.76
2023-04-18T23:29:59.290Z,10.75
2023-04-18T23:32:48.492Z,10.72
2023-04-18T23:35:37.971Z,10.71
2023-04-18T23:38:27.151Z,10.69
2023-04-18T23:41:16.647Z,10.65
2023-04-18T23:44:05.773Z,10.63
2023-04-18T23:46:54.825Z,10.60
2023-04-18T23:49:43.860Z,10.56
2023-04-18T23:52:33.237Z,10.55
2023-04-18T23:55:22.710Z,10.48
2023-04-18T23:58:12.029Z,10.44
